sensor_id;sensor_type;location;lat;lon;timestamp;P1;durP1;ratioP1;P2;durP2;ratioP2
54384;SDS011;40284;52.878;5.998;2023-10-31T00:01:03;12.95;;;4.50;;
54384;SDS011;40284;52.878;5.998;2023-10-31T00:03:29;14.90;;;4.45;;
54384;SDS011;40284;52.878;5.998;2023-10-31T00:05:55;12.60;;;7.43;;
54384;SDS011;40284;52.878;5.998;2023-10-31T00:08:21;14.02;;;5.75;;
54384;SDS011;40284;52.878;5.998;2023-10-31T00:10:47;6.15;;;2.72;;
54384;SDS011;40284;52.878;5.998;2023-10-31T00:13:13;9.13;;;3.45;;
54384;SDS011;40284;52.878;5.998;2023-10-31T00:15:39;9.98;;;3.97;;
54384;SDS011;40284;52.878;5.998;2023-10-31T00:18:05;7.43;;;3.03;;
54384;SDS011;40284;52.878;5.998;2023-10-31T00:20:31;7.07;;;2.67;;
54384;SDS011;40284;52.878;5.998;2023-10-31T00:22:57;6.32;;;2.42;;
54384;SDS011;40284;52.878;5.998;2023-10-31T00:25:23;5.63;;;2.17;;
54384;SDS011;40284;52.878;5.998;2023-10-31T00:27:49;7.20;;;2.85;;
54384;SDS011;40284;52.878;5.998;2023-10-31T00:30:15;7.25;;;2.83;;
54384;SDS011;40284;52.878;5.998;2023-10-31T00:32:42;8.75;;;2.20;;
54384;SDS011;40284;52.878;5.998;2023-10-31T00:35:08;9.65;;;3.13;;
54384;SDS011;40284;52.878;5.998;2023-10-31T00:37:34;11.02;;;3.47;;
54384;SDS011;40284;52.878;5.998;2023-10-31T00:40:00;12.60;;;3.63;;
54384;SDS011;40284;52.878;5.998;2023-10-31T00:42:26;6.93;;;2.88;;
54384;SDS011;40284;52.878;5.998;2023-10-31T00:44:52;8.82;;;3.20;;
54384;SDS011;40284;52.878;5.998;2023-10-31T00:47:18;13.88;;;4.05;;
54384;SDS011;40284;52.878;5.998;2023-10-31T00:49:45;10.02;;;4.05;;
54384;SDS011;40284;52.878;5.998;2023-10-31T00:52:11;9.07;;;4.88;;
54384;SDS011;40284;52.878;5.998;2023-10-31T00:54:37;8.95;;;3.80;;
54384;SDS011;40284;52.878;5.998;2023-10-31T00:57:03;8.68;;;3.42;;
54384;SDS011;40284;52.878;5.998;2023-10-31T00:59:29;9.98;;;3.55;;
54384;SDS011;40284;52.878;5.998;2023-10-31T01:01:55;13.55;;;3.72;;
54384;SDS011;40284;52.878;5.998;2023-10-31T01:04:21;8.55;;;2.67;;
54384;SDS011;40284;52.878;5.998;2023-10-31T01:06:47;7.03;;;1.70;;
54384;SDS011;40284;52.878;5.998;2023-10-31T01:09:13;6.82;;;2.10;;
54384;SDS011;40284;52.878;5.998;2023-10-31T01:11:39;6.78;;;1.90;;
54384;SDS011;40284;52.878;5.998;2023-10-31T01:14:05;5.15;;;1.40;;
54384;SDS011;40284;52.878;5.998;2023-10-31T01:16:31;6.78;;;1.65;;
54384;SDS011;40284;52.878;5.998;2023-10-31T01:18:57;3.90;;;1.20;;
54384;SDS011;40284;52.878;5.998;2023-10-31T01:21:23;5.68;;;1.63;;
54384;SDS011;40284;52.878;5.998;2023-10-31T01:23:49;6.57;;;2.30;;
54384;SDS011;40284;52.878;5.998;2023-10-31T01:26:15;19.17;;;4.72;;
54384;SDS011;40284;52.878;5.998;2023-10-31T01:28:42;13.73;;;4.47;;
54384;SDS011;40284;52.878;5.998;2023-10-31T01:31:08;8.10;;;3.70;;
54384;SDS011;40284;52.878;5.998;2023-10-31T01:33:34;11.57;;;2.67;;
54384;SDS011;40284;52.878;5.998;2023-10-31T01:36:01;7.88;;;2.22;;
54384;SDS011;40284;52.878;5.998;2023-10-31T01:38:27;7.10;;;2.78;;
54384;SDS011;40284;52.878;5.998;2023-10-31T01:40:53;8.73;;;2.60;;
54384;SDS011;40284;52.878;5.998;2023-10-31T01:43:32;7.97;;;2.67;;
54384;SDS011;40284;52.878;5.998;2023-10-31T01:45:58;10.50;;;2.42;;
54384;SDS011;40284;52.878;5.998;2023-10-31T01:48:24;7.78;;;2.55;;
54384;SDS011;40284;52.878;5.998;2023-10-31T01:50:51;11.38;;;3.08;;
54384;SDS011;40284;52.878;5.998;2023-10-31T01:53:17;7.10;;;2.70;;
54384;SDS011;40284;52.878;5.998;2023-10-31T01:55:47;7.35;;;2.88;;
54384;SDS011;40284;52.878;5.998;2023-10-31T01:58:13;9.30;;;2.70;;
54384;SDS011;40284;52.878;5.998;2023-10-31T02:00:40;11.57;;;2.55;;
54384;SDS011;40284;52.878;5.998;2023-10-31T02:03:07;8.00;;;2.65;;
54384;SDS011;40284;52.878;5.998;2023-10-31T02:05:34;10.27;;;2.60;;
54384;SDS011;40284;52.878;5.998;2023-10-31T02:08:00;7.07;;;2.13;;
54384;SDS011;40284;52.878;5.998;2023-10-31T02:10:27;7.32;;;1.90;;
54384;SDS011;40284;52.878;5.998;2023-10-31T02:12:53;7.22;;;1.80;;
54384;SDS011;40284;52.878;5.998;2023-10-31T02:15:19;9.63;;;2.00;;
54384;SDS011;40284;52.878;5.998;2023-10-31T02:17:45;7.13;;;2.63;;
54384;SDS011;40284;52.878;5.998;2023-10-31T02:20:11;12.45;;;2.38;;
54384;SDS011;40284;52.878;5.998;2023-10-31T02:22:37;9.13;;;2.72;;
54384;SDS011;40284;52.878;5.998;2023-10-31T02:25:03;8.80;;;2.65;;
54384;SDS011;40284;52.878;5.998;2023-10-31T02:27:41;9.77;;;2.75;;
54384;SDS011;40284;52.878;5.998;2023-10-31T02:30:07;7.53;;;2.92;;
54384;SDS011;40284;52.878;5.998;2023-10-31T02:32:33;8.73;;;3.25;;
54384;SDS011;40284;52.878;5.998;2023-10-31T02:34:59;7.35;;;3.50;;
54384;SDS011;40284;52.878;5.998;2023-10-31T02:37:25;8.07;;;4.00;;
54384;SDS011;40284;52.878;5.998;2023-10-31T02:39:51;7.03;;;3.95;;
54384;SDS011;40284;52.878;5.998;2023-10-31T02:42:17;11.68;;;4.82;;
54384;SDS011;40284;52.878;5.998;2023-10-31T02:44:43;11.32;;;4.55;;
54384;SDS011;40284;52.878;5.998;2023-10-31T02:47:09;11.95;;;4.35;;
54384;SDS011;40284;52.878;5.998;2023-10-31T02:49:35;9.63;;;4.38;;
54384;SDS011;40284;52.878;5.998;2023-10-31T02:52:01;12.57;;;5.55;;
54384;SDS011;40284;52.878;5.998;2023-10-31T02:54:27;11.38;;;5.05;;
54384;SDS011;40284;52.878;5.998;2023-10-31T02:56:54;10.95;;;4.63;;
54384;SDS011;40284;52.878;5.998;2023-10-31T02:59:20;10.35;;;4.40;;
54384;SDS011;40284;52.878;5.998;2023-10-31T03:01:46;8.27;;;4.13;;
54384;SDS011;40284;52.878;5.998;2023-10-31T03:04:12;10.75;;;3.92;;
54384;SDS011;40284;52.878;5.998;2023-10-31T03:06:38;9.07;;;3.92;;
54384;SDS011;40284;52.878;5.998;2023-10-31T03:09:04;8.43;;;4.18;;
54384;SDS011;40284;52.878;5.998;2023-10-31T03:11:30;7.18;;;3.25;;
54384;SDS011;40284;52.878;5.998;2023-10-31T03:13:57;10.70;;;3.38;;
54384;SDS011;40284;52.878;5.998;2023-10-31T03:16:24;7.05;;;2.90;;
54384;SDS011;40284;52.878;5.998;2023-10-31T03:18:50;10.35;;;2.90;;
54384;SDS011;40284;52.878;5.998;2023-10-31T03:21:17;8.10;;;2.70;;
54384;SDS011;40284;52.878;5.998;2023-10-31T03:23:43;6.97;;;2.10;;
54384;SDS011;40284;52.878;5.998;2023-10-31T03:26:12;6.32;;;2.15;;
54384;SDS011;40284;52.878;5.998;2023-10-31T03:28:38;9.60;;;2.20;;
54384;SDS011;40284;52.878;5.998;2023-10-31T03:31:04;8.68;;;2.42;;
54384;SDS011;40284;52.878;5.998;2023-10-31T03:33:30;5.97;;;1.60;;
54384;SDS011;40284;52.878;5.998;2023-10-31T03:35:57;8.80;;;1.80;;
54384;SDS011;40284;52.878;5.998;2023-10-31T03:38:23;6.53;;;1.85;;
54384;SDS011;40284;52.878;5.998;2023-10-31T03:40:49;7.38;;;1.83;;
54384;SDS011;40284;52.878;5.998;2023-10-31T03:43:15;7.93;;;2.13;;
54384;SDS011;40284;52.878;5.998;2023-10-31T03:45:41;7.38;;;1.88;;
54384;SDS011;40284;52.878;5.998;2023-10-31T03:48:07;7.28;;;2.40;;
54384;SDS011;40284;52.878;5.998;2023-10-31T03:50:33;7.72;;;2.28;;
54384;SDS011;40284;52.878;5.998;2023-10-31T03:52:59;7.65;;;2.22;;
54384;SDS011;40284;52.878;5.998;2023-10-31T03:55:25;6.15;;;2.10;;
54384;SDS011;40284;52.878;5.998;2023-10-31T03:57:52;5.80;;;2.30;;
54384;SDS011;40284;52.878;5.998;2023-10-31T04:00:18;7.50;;;2.22;;
54384;SDS011;40284;52.878;5.998;2023-10-31T04:02:44;10.18;;;2.80;;
54384;SDS011;40284;52.878;5.998;2023-10-31T04:05:10;10.55;;;2.10;;
54384;SDS011;40284;52.878;5.998;2023-10-31T04:07:36;10.38;;;2.25;;
54384;SDS011;40284;52.878;5.998;2023-10-31T04:10:03;9.68;;;2.15;;
54384;SDS011;40284;52.878;5.998;2023-10-31T04:12:29;6.78;;;1.83;;
54384;SDS011;40284;52.878;5.998;2023-10-31T04:14:55;10.07;;;1.70;;
54384;SDS011;40284;52.878;5.998;2023-10-31T04:17:21;7.68;;;1.73;;
54384;SDS011;40284;52.878;5.998;2023-10-31T04:19:47;7.82;;;2.20;;
54384;SDS011;40284;52.878;5.998;2023-10-31T04:22:13;6.30;;;1.75;;
54384;SDS011;40284;52.878;5.998;2023-10-31T04:24:40;6.93;;;1.92;;
54384;SDS011;40284;52.878;5.998;2023-10-31T04:27:06;8.20;;;2.28;;
54384;SDS011;40284;52.878;5.998;2023-10-31T04:29:32;6.35;;;1.60;;
54384;SDS011;40284;52.878;5.998;2023-10-31T04:31:58;7.78;;;1.63;;
54384;SDS011;40284;52.878;5.998;2023-10-31T04:34:24;3.53;;;1.40;;
54384;SDS011;40284;52.878;5.998;2023-10-31T04:36:50;8.55;;;1.85;;
54384;SDS011;40284;52.878;5.998;2023-10-31T04:39:16;4.38;;;1.35;;
54384;SDS011;40284;52.878;5.998;2023-10-31T04:41:42;5.28;;;1.15;;
54384;SDS011;40284;52.878;5.998;2023-10-31T04:44:08;5.13;;;1.15;;
54384;SDS011;40284;52.878;5.998;2023-10-31T04:46:34;7.05;;;1.35;;
54384;SDS011;40284;52.878;5.998;2023-10-31T04:49:00;3.33;;;1.25;;
54384;SDS011;40284;52.878;5.998;2023-10-31T04:51:27;5.65;;;1.13;;
54384;SDS011;40284;52.878;5.998;2023-10-31T04:53:53;4.50;;;1.23;;
54384;SDS011;40284;52.878;5.998;2023-10-31T04:56:19;9.18;;;1.48;;
54384;SDS011;40284;52.878;5.998;2023-10-31T04:58:45;4.45;;;1.20;;
54384;SDS011;40284;52.878;5.998;2023-10-31T05:01:12;4.28;;;1.33;;
54384;SDS011;40284;52.878;5.998;2023-10-31T05:03:38;3.95;;;1.42;;
54384;SDS011;40284;52.878;5.998;2023-10-31T05:06:04;2.30;;;1.15;;
54384;SDS011;40284;52.878;5.998;2023-10-31T05:08:31;7.07;;;1.30;;
54384;SDS011;40284;52.878;5.998;2023-10-31T05:11:00;3.25;;;1.10;;
54384;SDS011;40284;52.878;5.998;2023-10-31T05:13:26;4.35;;;1.30;;
54384;SDS011;40284;52.878;5.998;2023-10-31T05:15:52;2.78;;;1.00;;
54384;SDS011;40284;52.878;5.998;2023-10-31T05:18:18;2.65;;;1.00;;
54384;SDS011;40284;52.878;5.998;2023-10-31T05:20:44;7.25;;;1.48;;
54384;SDS011;40284;52.878;5.998;2023-10-31T05:23:10;5.57;;;1.17;;
54384;SDS011;40284;52.878;5.998;2023-10-31T05:25:37;5.15;;;1.27;;
54384;SDS011;40284;52.878;5.998;2023-10-31T05:28:03;4.70;;;1.33;;
54384;SDS011;40284;52.878;5.998;2023-10-31T05:30:29;7.55;;;1.80;;
54384;SDS011;40284;52.878;5.998;2023-10-31T05:32:55;4.82;;;1.10;;
54384;SDS011;40284;52.878;5.998;2023-10-31T05:35:22;6.22;;;1.30;;
54384;SDS011;40284;52.878;5.998;2023-10-31T05:37:48;2.35;;;1.10;;
54384;SDS011;40284;52.878;5.998;2023-10-31T05:40:14;7.38;;;1.75;;
54384;SDS011;40284;52.878;5.998;2023-10-31T05:42:41;4.53;;;1.27;;
54384;SDS011;40284;52.878;5.998;2023-10-31T05:45:08;9.40;;;2.72;;
54384;SDS011;40284;52.878;5.998;2023-10-31T05:47:34;5.20;;;1.65;;
54384;SDS011;40284;52.878;5.998;2023-10-31T05:50:00;4.18;;;1.95;;
54384;SDS011;40284;52.878;5.998;2023-10-31T05:52:29;4.75;;;1.80;;
54384;SDS011;40284;52.878;5.998;2023-10-31T05:54:56;4.10;;;1.55;;
54384;SDS011;40284;52.878;5.998;2023-10-31T05:57:23;4.90;;;1.70;;
54384;SDS011;40284;52.878;5.998;2023-10-31T05:59:49;4.43;;;1.77;;
54384;SDS011;40284;52.878;5.998;2023-10-31T06:02:15;6.35;;;1.98;;
54384;SDS011;40284;52.878;5.998;2023-10-31T06:04:41;5.82;;;2.20;;
54384;SDS011;40284;52.878;5.998;2023-10-31T06:07:07;3.88;;;1.77;;
54384;SDS011;40284;52.878;5.998;2023-10-31T06:09:33;5.20;;;2.17;;
54384;SDS011;40284;52.878;5.998;2023-10-31T06:12:00;5.68;;;2.50;;
54384;SDS011;40284;52.878;5.998;2023-10-31T06:14:26;6.18;;;2.25;;
54384;SDS011;40284;52.878;5.998;2023-10-31T06:16:52;7.90;;;2.08;;
54384;SDS011;40284;52.878;5.998;2023-10-31T06:19:19;4.65;;;2.38;;
54384;SDS011;40284;52.878;5.998;2023-10-31T06:21:45;8.57;;;2.28;;
54384;SDS011;40284;52.878;5.998;2023-10-31T06:24:12;6.40;;;2.67;;
54384;SDS011;40284;52.878;5.998;2023-10-31T06:26:38;4.78;;;2.55;;
54384;SDS011;40284;52.878;5.998;2023-10-31T06:29:05;9.27;;;2.97;;
54384;SDS011;40284;52.878;5.998;2023-10-31T06:31:31;7.43;;;2.78;;
54384;SDS011;40284;52.878;5.998;2023-10-31T06:33:57;7.78;;;2.85;;
54384;SDS011;40284;52.878;5.998;2023-10-31T06:36:23;5.30;;;2.90;;
54384;SDS011;40284;52.878;5.998;2023-10-31T06:38:49;8.75;;;2.75;;
54384;SDS011;40284;52.878;5.998;2023-10-31T06:41:15;6.20;;;2.85;;
54384;SDS011;40284;52.878;5.998;2023-10-31T06:43:41;4.22;;;2.88;;
54384;SDS011;40284;52.878;5.998;2023-10-31T06:46:07;3.92;;;3.17;;
54384;SDS011;40284;52.878;5.998;2023-10-31T06:48:33;7.32;;;2.83;;
54384;SDS011;40284;52.878;5.998;2023-10-31T06:50:59;5.72;;;3.00;;
54384;SDS011;40284;52.878;5.998;2023-10-31T06:53:26;7.97;;;5.35;;
54384;SDS011;40284;52.878;5.998;2023-10-31T06:55:52;6.40;;;3.50;;
54384;SDS011;40284;52.878;5.998;2023-10-31T06:58:18;9.15;;;4.20;;
54384;SDS011;40284;52.878;5.998;2023-10-31T07:00:44;7.18;;;3.15;;
54384;SDS011;40284;52.878;5.998;2023-10-31T07:03:10;5.75;;;3.05;;
54384;SDS011;40284;52.878;5.998;2023-10-31T07:05:40;7.82;;;3.40;;
54384;SDS011;40284;52.878;5.998;2023-10-31T07:08:06;16.98;;;3.80;;
54384;SDS011;40284;52.878;5.998;2023-10-31T07:10:32;6.82;;;2.55;;
54384;SDS011;40284;52.878;5.998;2023-10-31T07:12:58;7.97;;;2.42;;
54384;SDS011;40284;52.878;5.998;2023-10-31T07:15:25;4.95;;;2.00;;
54384;SDS011;40284;52.878;5.998;2023-10-31T07:17:51;4.40;;;2.33;;
54384;SDS011;40284;52.878;5.998;2023-10-31T07:20:17;3.60;;;1.98;;
54384;SDS011;40284;52.878;5.998;2023-10-31T07:22:43;5.05;;;2.00;;
54384;SDS011;40284;52.878;5.998;2023-10-31T07:25:10;3.92;;;1.80;;
54384;SDS011;40284;52.878;5.998;2023-10-31T07:27:36;6.30;;;2.22;;
54384;SDS011;40284;52.878;5.998;2023-10-31T07:30:03;3.88;;;1.92;;
54384;SDS011;40284;52.878;5.998;2023-10-31T07:32:31;2.78;;;1.70;;
54384;SDS011;40284;52.878;5.998;2023-10-31T07:34:57;4.32;;;1.75;;
54384;SDS011;40284;52.878;5.998;2023-10-31T07:37:23;4.22;;;1.42;;
54384;SDS011;40284;52.878;5.998;2023-10-31T07:39:49;3.78;;;1.30;;
54384;SDS011;40284;52.878;5.998;2023-10-31T07:42:18;6.25;;;1.45;;
54384;SDS011;40284;52.878;5.998;2023-10-31T07:44:44;4.78;;;1.30;;
54384;SDS011;40284;52.878;5.998;2023-10-31T07:47:11;6.97;;;1.50;;
54384;SDS011;40284;52.878;5.998;2023-10-31T07:49:37;3.53;;;1.50;;
54384;SDS011;40284;52.878;5.998;2023-10-31T07:52:03;4.57;;;1.30;;
54384;SDS011;40284;52.878;5.998;2023-10-31T07:54:29;6.07;;;1.50;;
54384;SDS011;40284;52.878;5.998;2023-10-31T07:56:55;5.20;;;1.30;;
54384;SDS011;40284;52.878;5.998;2023-10-31T07:59:21;4.40;;;1.10;;
54384;SDS011;40284;52.878;5.998;2023-10-31T08:01:47;4.72;;;1.42;;
54384;SDS011;40284;52.878;5.998;2023-10-31T08:04:15;7.97;;;1.30;;
54384;SDS011;40284;52.878;5.998;2023-10-31T08:06:42;6.47;;;1.30;;
54384;SDS011;40284;52.878;5.998;2023-10-31T08:09:08;8.13;;;1.50;;
54384;SDS011;40284;52.878;5.998;2023-10-31T08:11:34;4.95;;;1.52;;
54384;SDS011;40284;52.878;5.998;2023-10-31T08:14:00;5.55;;;1.40;;
54384;SDS011;40284;52.878;5.998;2023-10-31T08:16:27;9.65;;;1.73;;
54384;SDS011;40284;52.878;5.998;2023-10-31T08:18:53;6.88;;;1.50;;
54384;SDS011;40284;52.878;5.998;2023-10-31T08:21:19;5.20;;;1.30;;
54384;SDS011;40284;52.878;5.998;2023-10-31T08:23:45;6.60;;;1.08;;
54384;SDS011;40284;52.878;5.998;2023-10-31T08:26:12;5.93;;;1.63;;
54384;SDS011;40284;52.878;5.998;2023-10-31T08:28:38;5.03;;;1.10;;
54384;SDS011;40284;52.878;5.998;2023-10-31T08:31:04;6.47;;;1.00;;
54384;SDS011;40284;52.878;5.998;2023-10-31T08:33:30;6.38;;;2.40;;
54384;SDS011;40284;52.878;5.998;2023-10-31T08:35:56;5.22;;;1.05;;
54384;SDS011;40284;52.878;5.998;2023-10-31T08:38:23;6.55;;;1.40;;
54384;SDS011;40284;52.878;5.998;2023-10-31T08:40:49;5.38;;;1.15;;
54384;SDS011;40284;52.878;5.998;2023-10-31T08:43:15;6.45;;;1.40;;
54384;SDS011;40284;52.878;5.998;2023-10-31T08:45:41;5.80;;;1.42;;
54384;SDS011;40284;52.878;5.998;2023-10-31T08:48:07;3.33;;;1.38;;
54384;SDS011;40284;52.878;5.998;2023-10-31T08:50:33;7.00;;;1.17;;
54384;SDS011;40284;52.878;5.998;2023-10-31T08:52:59;4.80;;;1.08;;
54384;SDS011;40284;52.878;5.998;2023-10-31T08:55:25;3.88;;;1.17;;
54384;SDS011;40284;52.878;5.998;2023-10-31T08:57:51;8.80;;;0.80;;
54384;SDS011;40284;52.878;5.998;2023-10-31T09:00:18;4.38;;;1.15;;
54384;SDS011;40284;52.878;5.998;2023-10-31T09:02:44;4.45;;;1.27;;
54384;SDS011;40284;52.878;5.998;2023-10-31T09:05:10;4.65;;;0.90;;
54384;SDS011;40284;52.878;5.998;2023-10-31T09:07:36;2.97;;;0.80;;
54384;SDS011;40284;52.878;5.998;2023-10-31T09:10:02;7.07;;;1.27;;
54384;SDS011;40284;52.878;5.998;2023-10-31T09:12:30;5.88;;;0.80;;
54384;SDS011;40284;52.878;5.998;2023-10-31T09:14:57;6.90;;;1.00;;
54384;SDS011;40284;52.878;5.998;2023-10-31T09:17:23;2.30;;;0.90;;
54384;SDS011;40284;52.878;5.998;2023-10-31T09:19:49;3.95;;;1.08;;
54384;SDS011;40284;52.878;5.998;2023-10-31T09:22:15;5.13;;;0.98;;
54384;SDS011;40284;52.878;5.998;2023-10-31T09:24:41;4.97;;;0.80;;
54384;SDS011;40284;52.878;5.998;2023-10-31T09:27:09;5.55;;;0.90;;
54384;SDS011;40284;52.878;5.998;2023-10-31T09:29:35;4.47;;;1.30;;
54384;SDS011;40284;52.878;5.998;2023-10-31T09:32:01;2.50;;;0.77;;
54384;SDS011;40284;52.878;5.998;2023-10-31T09:34:28;5.55;;;1.77;;
54384;SDS011;40284;52.878;5.998;2023-10-31T09:36:54;1.25;;;0.75;;
54384;SDS011;40284;52.878;5.998;2023-10-31T09:39:21;3.45;;;1.77;;
54384;SDS011;40284;52.878;5.998;2023-10-31T09:41:48;4.45;;;2.22;;
54384;SDS011;40284;52.878;5.998;2023-10-31T09:44:14;3.75;;;2.28;;
54384;SDS011;40284;52.878;5.998;2023-10-31T09:46:40;2.58;;;1.65;;
54384;SDS011;40284;52.878;5.998;2023-10-31T09:49:07;6.50;;;1.88;;
54384;SDS011;40284;52.878;5.998;2023-10-31T09:51:33;5.55;;;1.85;;
54384;SDS011;40284;52.878;5.998;2023-10-31T09:54:01;5.38;;;1.65;;
54384;SDS011;40284;52.878;5.998;2023-10-31T09:56:28;3.40;;;1.80;;
54384;SDS011;40284;52.878;5.998;2023-10-31T09:59:03;4.90;;;0.50;;
54384;SDS011;40284;52.878;5.998;2023-10-31T10:01:30;5.78;;;1.17;;
54384;SDS011;40284;52.878;5.998;2023-10-31T10:03:56;4.13;;;1.23;;
54384;SDS011;40284;52.878;5.998;2023-10-31T10:06:22;2.45;;;1.20;;
54384;SDS011;40284;52.878;5.998;2023-10-31T10:08:49;2.03;;;1.10;;
54384;SDS011;40284;52.878;5.998;2023-10-31T10:11:15;4.78;;;1.00;;
54384;SDS011;40284;52.878;5.998;2023-10-31T10:13:41;5.57;;;0.90;;
54384;SDS011;40284;52.878;5.998;2023-10-31T10:16:08;4.63;;;1.20;;
54384;SDS011;40284;52.878;5.998;2023-10-31T10:18:35;2.17;;;0.50;;
54384;SDS011;40284;52.878;5.998;2023-10-31T10:21:05;4.60;;;0.65;;
54384;SDS011;40284;52.878;5.998;2023-10-31T10:23:31;1.52;;;0.70;;
54384;SDS011;40284;52.878;5.998;2023-10-31T10:25:58;2.55;;;0.55;;
54384;SDS011;40284;52.878;5.998;2023-10-31T10:28:25;1.02;;;0.45;;
54384;SDS011;40284;52.878;5.998;2023-10-31T10:30:51;3.33;;;0.73;;
54384;SDS011;40284;52.878;5.998;2023-10-31T10:33:18;1.40;;;0.60;;
54384;SDS011;40284;52.878;5.998;2023-10-31T10:35:44;0.73;;;0.38;;
54384;SDS011;40284;52.878;5.998;2023-10-31T10:38:14;1.02;;;0.50;;
54384;SDS011;40284;52.878;5.998;2023-10-31T10:40:41;2.78;;;0.80;;
54384;SDS011;40284;52.878;5.998;2023-10-31T10:43:28;1.73;;;1.23;;
54384;SDS011;40284;52.878;5.998;2023-10-31T10:45:56;1.63;;;0.75;;
54384;SDS011;40284;52.878;5.998;2023-10-31T10:48:23;2.58;;;0.70;;
54384;SDS011;40284;52.878;5.998;2023-10-31T10:50:51;2.53;;;0.60;;
54384;SDS011;40284;52.878;5.998;2023-10-31T10:53:22;1.80;;;0.60;;
54384;SDS011;40284;52.878;5.998;2023-10-31T10:55:55;4.18;;;1.95;;
54384;SDS011;40284;52.878;5.998;2023-10-31T10:58:32;4.10;;;0.68;;
54384;SDS011;40284;52.878;5.998;2023-10-31T11:01:00;3.55;;;0.80;;
54384;SDS011;40284;52.878;5.998;2023-10-31T11:03:27;1.30;;;0.80;;
54384;SDS011;40284;52.878;5.998;2023-10-31T11:05:54;4.03;;;1.70;;
54384;SDS011;40284;52.878;5.998;2023-10-31T11:08:20;5.30;;;4.70;;
54384;SDS011;40284;52.878;5.998;2023-10-31T11:10:47;3.45;;;1.00;;
54384;SDS011;40284;52.878;5.998;2023-10-31T11:13:13;3.60;;;1.67;;
54384;SDS011;40284;52.878;5.998;2023-10-31T11:15:40;3.22;;;1.15;;
54384;SDS011;40284;52.878;5.998;2023-10-31T11:18:06;2.95;;;0.85;;
54384;SDS011;40284;52.878;5.998;2023-10-31T11:20:32;2.88;;;1.48;;
54384;SDS011;40284;52.878;5.998;2023-10-31T11:22:59;3.63;;;1.00;;
54384;SDS011;40284;52.878;5.998;2023-10-31T11:25:31;0.57;;;0.30;;
54384;SDS011;40284;52.878;5.998;2023-10-31T11:28:09;1.88;;;0.40;;
54384;SDS011;40284;52.878;5.998;2023-10-31T11:30:36;1.85;;;0.60;;
54384;SDS011;40284;52.878;5.998;2023-10-31T11:33:02;1.83;;;0.70;;
54384;SDS011;40284;52.878;5.998;2023-10-31T11:35:30;2.75;;;0.90;;
54384;SDS011;40284;52.878;5.998;2023-10-31T11:38:05;1.73;;;0.50;;
54384;SDS011;40284;52.878;5.998;2023-10-31T11:40:36;0.32;;;0.32;;
54384;SDS011;40284;52.878;5.998;2023-10-31T11:43:03;2.25;;;0.50;;
54384;SDS011;40284;52.878;5.998;2023-10-31T11:45:36;1.65;;;0.50;;
54384;SDS011;40284;52.878;5.998;2023-10-31T11:48:07;2.58;;;0.60;;
54384;SDS011;40284;52.878;5.998;2023-10-31T11:50:35;2.88;;;1.02;;
54384;SDS011;40284;52.878;5.998;2023-10-31T11:53:19;0.80;;;0.40;;
54384;SDS011;40284;52.878;5.998;2023-10-31T11:55:47;2.20;;;0.70;;
54384;SDS011;40284;52.878;5.998;2023-10-31T11:58:17;1.02;;;0.55;;
54384;SDS011;40284;52.878;5.998;2023-10-31T12:00:47;1.60;;;0.90;;
54384;SDS011;40284;52.878;5.998;2023-10-31T12:03:18;1.38;;;1.10;;
54384;SDS011;40284;52.878;5.998;2023-10-31T12:05:50;2.20;;;0.43;;
54384;SDS011;40284;52.878;5.998;2023-10-31T12:10:52;1.05;;;0.50;;
54384;SDS011;40284;52.878;5.998;2023-10-31T12:13:18;2.03;;;0.50;;
54384;SDS011;40284;52.878;5.998;2023-10-31T12:15:51;1.35;;;0.57;;
54384;SDS011;40284;52.878;5.998;2023-10-31T12:20:47;1.85;;;0.50;;
54384;SDS011;40284;52.878;5.998;2023-10-31T12:23:14;1.80;;;1.00;;
54384;SDS011;40284;52.878;5.998;2023-10-31T12:25:52;0.90;;;0.60;;
54384;SDS011;40284;52.878;5.998;2023-10-31T12:28:19;3.53;;;1.40;;
54384;SDS011;40284;52.878;5.998;2023-10-31T12:30:46;2.67;;;1.10;;
54384;SDS011;40284;52.878;5.998;2023-10-31T12:33:12;3.85;;;0.82;;
54384;SDS011;40284;52.878;5.998;2023-10-31T12:35:39;5.30;;;2.90;;
54384;SDS011;40284;52.878;5.998;2023-10-31T12:38:05;10.20;;;5.43;;
54384;SDS011;40284;52.878;5.998;2023-10-31T12:40:31;8.35;;;5.25;;
54384;SDS011;40284;52.878;5.998;2023-10-31T12:42:58;4.22;;;2.08;;
54384;SDS011;40284;52.878;5.998;2023-10-31T12:45:25;2.90;;;1.25;;
54384;SDS011;40284;52.878;5.998;2023-10-31T12:48:04;4.35;;;1.70;;
54384;SDS011;40284;52.878;5.998;2023-10-31T12:50:31;6.15;;;1.50;;
54384;SDS011;40284;52.878;5.998;2023-10-31T12:52:57;6.35;;;2.00;;
54384;SDS011;40284;52.878;5.998;2023-10-31T12:55:25;6.93;;;3.20;;
54384;SDS011;40284;52.878;5.998;2023-10-31T12:57:52;2.17;;;0.88;;
54384;SDS011;40284;52.878;5.998;2023-10-31T13:00:19;1.38;;;0.52;;
54384;SDS011;40284;52.878;5.998;2023-10-31T13:03:04;6.18;;;1.50;;
54384;SDS011;40284;52.878;5.998;2023-10-31T13:05:30;3.88;;;1.80;;
54384;SDS011;40284;52.878;5.998;2023-10-31T13:07:58;4.80;;;2.33;;
54384;SDS011;40284;52.878;5.998;2023-10-31T13:10:28;3.42;;;1.73;;
54384;SDS011;40284;52.878;5.998;2023-10-31T13:12:54;5.45;;;1.25;;
54384;SDS011;40284;52.878;5.998;2023-10-31T13:15:22;3.80;;;1.77;;
54384;SDS011;40284;52.878;5.998;2023-10-31T13:17:49;2.55;;;1.23;;
54384;SDS011;40284;52.878;5.998;2023-10-31T13:20:17;4.40;;;1.05;;
54384;SDS011;40284;52.878;5.998;2023-10-31T13:22:44;1.90;;;0.57;;
54384;SDS011;40284;52.878;5.998;2023-10-31T13:25:11;2.85;;;0.88;;
54384;SDS011;40284;52.878;5.998;2023-10-31T13:27:38;1.23;;;0.65;;
54384;SDS011;40284;52.878;5.998;2023-10-31T13:30:05;2.78;;;1.20;;
54384;SDS011;40284;52.878;5.998;2023-10-31T13:32:33;3.92;;;0.75;;
54384;SDS011;40284;52.878;5.998;2023-10-31T13:34:59;4.22;;;0.80;;
54384;SDS011;40284;52.878;5.998;2023-10-31T13:37:25;1.45;;;0.68;;
54384;SDS011;40284;52.878;5.998;2023-10-31T13:39:51;2.47;;;0.75;;
54384;SDS011;40284;52.878;5.998;2023-10-31T13:42:17;4.38;;;0.60;;
54384;SDS011;40284;52.878;5.998;2023-10-31T13:44:43;3.47;;;0.80;;
54384;SDS011;40284;52.878;5.998;2023-10-31T13:47:09;7.00;;;1.00;;
54384;SDS011;40284;52.878;5.998;2023-10-31T13:49:36;3.50;;;0.98;;
54384;SDS011;40284;52.878;5.998;2023-10-31T13:52:03;2.13;;;0.65;;
54384;SDS011;40284;52.878;5.998;2023-10-31T13:54:30;2.60;;;0.52;;
54384;SDS011;40284;52.878;5.998;2023-10-31T13:56:56;2.47;;;0.82;;
54384;SDS011;40284;52.878;5.998;2023-10-31T13:59:23;2.42;;;0.80;;
54384;SDS011;40284;52.878;5.998;2023-10-31T14:01:49;3.03;;;0.90;;
54384;SDS011;40284;52.878;5.998;2023-10-31T14:04:15;1.52;;;0.60;;
54384;SDS011;40284;52.878;5.998;2023-10-31T14:06:42;1.58;;;0.70;;
54384;SDS011;40284;52.878;5.998;2023-10-31T14:09:08;4.38;;;2.28;;
54384;SDS011;40284;52.878;5.998;2023-10-31T14:11:35;1.75;;;1.10;;
54384;SDS011;40284;52.878;5.998;2023-10-31T14:14:01;4.25;;;1.15;;
54384;SDS011;40284;52.878;5.998;2023-10-31T14:16:41;1.88;;;0.88;;
54384;SDS011;40284;52.878;5.998;2023-10-31T14:19:11;3.05;;;1.40;;
54384;SDS011;40284;52.878;5.998;2023-10-31T14:21:38;1.10;;;0.80;;
54384;SDS011;40284;52.878;5.998;2023-10-31T14:24:05;1.92;;;0.40;;
54384;SDS011;40284;52.878;5.998;2023-10-31T14:26:33;3.17;;;0.70;;
54384;SDS011;40284;52.878;5.998;2023-10-31T14:29:00;3.20;;;0.73;;
54384;SDS011;40284;52.878;5.998;2023-10-31T14:31:26;3.70;;;0.65;;
54384;SDS011;40284;52.878;5.998;2023-10-31T14:33:52;2.40;;;0.50;;
54384;SDS011;40284;52.878;5.998;2023-10-31T14:36:18;1.27;;;0.63;;
54384;SDS011;40284;52.878;5.998;2023-10-31T14:38:44;2.83;;;0.95;;
54384;SDS011;40284;52.878;5.998;2023-10-31T14:41:10;0.80;;;0.40;;
54384;SDS011;40284;52.878;5.998;2023-10-31T14:43:37;3.05;;;0.77;;
54384;SDS011;40284;52.878;5.998;2023-10-31T14:46:03;0.60;;;0.43;;
54384;SDS011;40284;52.878;5.998;2023-10-31T14:48:29;1.17;;;0.50;;